createdAt,value
2022-09-17T00:00:06.207Z,6.53
2022-09-17T00:00:17.624Z,4.60
2022-09-17T00:00:28.827Z,5.95
2022-09-17T00:00:40.830Z,5.57
2022-09-17T00:00:52.282Z,8.90
2022-09-17T00:01:04.015Z,9.45
2022-09-17T00:01:16.801Z,9.82
2022-09-17T00:01:28.569Z,12.13
2022-09-17T00:01:40.069Z,11.57
2022-09-17T00:01:52.184Z,8.55
2022-09-17T00:02:03.579Z,4.85
2022-09-17T00:02:14.933Z,8.07
2022-09-17T00:02:26.203Z,8.45
2022-09-17T00:02:37.480Z,5.85
2022-09-17T00:02:54.636Z,5.30
2022-09-17T00:03:06.397Z,5.15
2022-09-17T00:03:18.139Z,6.35
2022-09-17T00:03:29.353Z,7.10
2022-09-17T00:03:40.568Z,4.57
2022-09-17T00:03:52.560Z,4.65
2022-09-17T00:04:03.912Z,5.97
2022-09-17T00:04:15.202Z,5.82
2022-09-17T00:04:26.472Z,3.70
2022-09-17T00:04:37.717Z,4.60
2022-09-17T00:04:49.265Z,5.38
2022-09-17T00:05:00.563Z,6.18
2022-09-17T00:05:12.011Z,9.52
2022-09-17T00:05:23.445Z,8.88
2022-09-17T00:05:34.823Z,8.82
2022-09-17T00:05:46.054Z,3.92
2022-09-17T00:06:04.785Z,3.25
2022-09-17T00:06:16.076Z,4.32
2022-09-17T00:06:27.634Z,3.70
2022-09-17T00:06:38.913Z,4.85
2022-09-17T00:06:50.157Z,4.72
2022-09-17T00:07:01.448Z,4.93
2022-09-17T00:07:12.672Z,4.70
2022-09-17T00:07:23.888Z,5.55
2022-09-17T00:07:35.141Z,4.82
2022-09-17T00:07:46.364Z,3.33
2022-09-17T00:07:57.712Z,2.65
2022-09-17T00:08:11.189Z,3.15
2022-09-17T00:08:22.487Z,2.70
2022-09-17T00:08:35.149Z,2.58
2022-09-17T00:08:46.553Z,3.60
2022-09-17T00:08:57.830Z,5.40
2022-09-17T00:09:09.525Z,8.20
2022-09-17T00:09:20.758Z,7.95
2022-09-17T00:09:32.031Z,6.60
2022-09-17T00:09:43.223Z,3.78
2022-09-17T00:09:54.495Z,3.92
2022-09-17T00:10:06.009Z,4.30
2022-09-17T00:10:18.306Z,6.72
2022-09-17T00:10:29.769Z,6.40
2022-09-17T00:10:42.235Z,5.38
2022-09-17T00:10:53.503Z,7.90
2022-09-17T00:11:12.133Z,7.78
2022-09-17T00:11:25.575Z,6.68
2022-09-17T00:11:38.296Z,5.13
2022-09-17T00:11:49.516Z,2.72
2022-09-17T00:12:00.876Z,3.50
2022-09-17T00:12:12.159Z,4.30
2022-09-17T00:12:23.410Z,5.93
2022-09-17T00:12:34.638Z,5.20
2022-09-17T00:12:46.138Z,4.20
2022-09-17T00:12:57.449Z,3.38
2022-09-17T00:13:09.455Z,3.50
2022-09-17T00:13:20.824Z,3.92
2022-09-17T00:13:32.035Z,3.65
2022-09-17T00:13:43.916Z,2.97
2022-09-17T00:13:55.958Z,3.55
2022-09-17T00:14:08.182Z,6.20
2022-09-17T00:14:19.380Z,6.65
2022-09-17T00:14:30.666Z,5.25
2022-09-17T00:14:41.920Z,3.22
2022-09-17T00:14:53.201Z,2.97
2022-09-17T00:15:04.597Z,3.35
2022-09-17T00:15:16.324Z,5.03
2022-09-17T00:15:27.578Z,4.63
2022-09-17T00:15:43.531Z,4.32
2022-09-17T00:15:54.908Z,3.85
2022-09-17T00:16:06.797Z,5.40
2022-09-17T00:16:29.338Z,5.25
2022-09-17T00:16:42.572Z,4.18
2022-09-17T00:16:54.424Z,4.20
2022-09-17T00:17:05.693Z,4.68
2022-09-17T00:17:16.899Z,4.43
2022-09-17T00:17:28.171Z,4.75
2022-09-17T00:17:39.423Z,4.75
2022-09-17T00:17:54.205Z,4.38
2022-09-17T00:18:05.478Z,5.78
2022-09-17T00:18:16.876Z,6.45
2022-09-17T00:18:28.138Z,4.07
2022-09-17T00:18:39.542Z,3.00
2022-09-17T00:18:50.753Z,2.67
2022-09-17T00:19:02.675Z,3.25
2022-09-17T00:19:15.655Z,4.03
2022-09-17T00:19:26.885Z,6.57
2022-09-17T00:19:39.043Z,6.22
2022-09-17T00:19:50.245Z,5.32
2022-09-17T00:20:01.690Z,5.57
2022-09-17T00:20:12.960Z,4.97
2022-09-17T00:20:25.142Z,5.00
2022-09-17T00:20:40.067Z,2.90
2022-09-17T00:20:51.279Z,1.92
2022-09-17T00:21:02.959Z,3.38
2022-09-17T00:21:17.702Z,3.58
2022-09-17T00:21:29.350Z,3.28
2022-09-17T00:21:41.379Z,3.47
2022-09-17T00:21:52.681Z,2.65
2022-09-17T00:22:03.955Z,3.70
2022-09-17T00:22:15.461Z,4.15
2022-09-17T00:22:26.679Z,5.65
2022-09-17T00:22:38.408Z,5.55
2022-09-17T00:22:49.695Z,4.85
2022-09-17T00:23:00.959Z,4.88
2022-09-17T00:23:13.361Z,4.78
2022-09-17T00:23:24.611Z,5.28
2022-09-17T00:23:35.879Z,6.50
2022-09-17T00:23:47.188Z,4.63
2022-09-17T00:23:59.724Z,2.97
2022-09-17T00:24:11.754Z,2.50
2022-09-17T00:24:23.000Z,2.90
2022-09-17T00:24:34.230Z,4.28
2022-09-17T00:24:45.454Z,3.65
2022-09-17T00:24:56.685Z,3.33
2022-09-17T00:25:08.007Z,2.97
2022-09-17T00:25:19.659Z,3.35
2022-09-17T00:25:30.949Z,4.93
2022-09-17T00:25:43.890Z,5.40
2022-09-17T00:25:55.202Z,8.27
2022-09-17T00:26:06.467Z,7.95
2022-09-17T00:26:17.684Z,5.93
2022-09-17T00:26:29.860Z,2.88
2022-09-17T00:26:41.558Z,2.50
2022-09-17T00:26:52.818Z,3.13
2022-09-17T00:27:04.146Z,3.65
2022-09-17T00:27:15.376Z,3.83
2022-09-17T00:27:26.598Z,3.30
2022-09-17T00:27:37.827Z,3.78
2022-09-17T00:27:49.056Z,3.20
2022-09-17T00:28:00.365Z,3.40
2022-09-17T00:28:12.793Z,2.78
2022-09-17T00:28:24.015Z,3.53
2022-09-17T00:28:35.447Z,3.72
2022-09-17T00:28:49.258Z,3.05
2022-09-17T00:29:01.311Z,2.15
2022-09-17T00:29:12.590Z,2.92
2022-09-17T00:29:24.144Z,3.10
2022-09-17T00:29:35.388Z,2.55
2022-09-17T00:29:48.287Z,1.58
2022-09-17T00:29:59.564Z,1.63
2022-09-17T00:30:11.472Z,1.73
2022-09-17T00:30:22.738Z,2.70
2022-09-17T00:30:34.299Z,3.45
2022-09-17T00:30:45.947Z,3.40
2022-09-17T00:30:57.233Z,2.60
2022-09-17T00:31:09.098Z,2.15
2022-09-17T00:31:21.124Z,2.85
2022-09-17T00:31:32.980Z,2.67
2022-09-17T00:31:44.301Z,6.20
2022-09-17T00:31:55.583Z,6.53
2022-09-17T00:32:06.788Z,8.38
2022-09-17T00:32:18.047Z,6.05
2022-09-17T00:32:30.059Z,5.30
2022-09-17T00:32:41.286Z,3.85
2022-09-17T00:32:52.552Z,3.25
2022-09-17T00:33:03.928Z,2.80
2022-09-17T00:33:16.171Z,3.20
2022-09-17T00:33:27.420Z,2.25
2022-09-17T00:33:38.727Z,3.17
2022-09-17T00:33:49.994Z,4.70
2022-09-17T00:34:01.877Z,4.25
2022-09-17T00:34:13.100Z,5.15
2022-09-17T00:34:24.305Z,4.43
2022-09-17T00:34:35.608Z,3.80
2022-09-17T00:34:46.866Z,3.95
2022-09-17T00:34:58.115Z,3.63
2022-09-17T00:35:09.451Z,3.20
2022-09-17T00:35:20.740Z,2.80
2022-09-17T00:35:32.024Z,3.20
2022-09-17T00:35:44.017Z,3.42
2022-09-17T00:35:59.060Z,6.22
2022-09-17T00:36:10.314Z,6.80
2022-09-17T00:36:22.036Z,4.45
2022-09-17T00:36:37.301Z,4.57
2022-09-17T00:36:48.545Z,4.55
2022-09-17T00:36:59.760Z,4.18
2022-09-17T00:37:10.990Z,3.80
2022-09-17T00:37:22.568Z,3.60
2022-09-17T00:37:33.791Z,3.40
2022-09-17T00:37:45.658Z,4.63
2022-09-17T00:37:56.939Z,6.03
2022-09-17T00:38:08.159Z,7.20
2022-09-17T00:38:19.437Z,6.40
2022-09-17T00:38:30.871Z,4.55
2022-09-17T00:38:42.107Z,3.97
2022-09-17T00:38:54.902Z,4.53
2022-09-17T00:39:08.178Z,7.75
2022-09-17T00:39:19.457Z,6.72
2022-09-17T00:39:30.946Z,4.53
2022-09-17T00:39:42.227Z,3.00
2022-09-17T00:39:53.517Z,4.10
2022-09-17T00:40:05.097Z,4.50
2022-09-17T00:40:16.507Z,4.88
2022-09-17T00:40:27.967Z,4.40
2022-09-17T00:40:39.209Z,2.53
2022-09-17T00:40:50.501Z,2.88
2022-09-17T00:41:02.417Z,3.67
2022-09-17T00:41:13.675Z,4.45
2022-09-17T00:41:26.611Z,3.30
2022-09-17T00:41:38.368Z,2.92
2022-09-17T00:41:49.637Z,2.20
2022-09-17T00:42:00.848Z,2.53
2022-09-17T00:42:12.813Z,2.88
2022-09-17T00:42:24.173Z,3.17
2022-09-17T00:42:35.447Z,2.15
2022-09-17T00:42:46.782Z,3.03
2022-09-17T00:42:57.995Z,2.53
2022-09-17T00:43:11.945Z,3.35
2022-09-17T00:43:35.548Z,3.03
2022-09-17T00:43:48.310Z,3.25
2022-09-17T00:44:00.808Z,3.78
2022-09-17T00:44:30.823Z,3.58
2022-09-17T00:44:55.263Z,2.67
2022-09-17T00:45:06.781Z,2.33
2022-09-17T00:45:18.030Z,3.92
2022-09-17T00:45:29.690Z,3.50
2022-09-17T00:45:40.971Z,6.13
2022-09-17T00:45:52.231Z,6.15
2022-09-17T00:46:04.803Z,5.45
2022-09-17T00:46:16.103Z,2.05
2022-09-17T00:46:36.471Z,1.95
2022-09-17T00:46:48.396Z,2.53
2022-09-17T00:46:59.731Z,3.10
2022-09-17T00:47:13.791Z,3.30
2022-09-17T00:47:34.162Z,5.55
2022-09-17T00:47:47.217Z,4.65
2022-09-17T00:48:00.239Z,2.40
2022-09-17T00:48:11.517Z,2.88
2022-09-17T00:48:22.738Z,5.40
2022-09-17T00:48:33.966Z,4.45
2022-09-17T00:48:45.323Z,1.77
2022-09-17T00:48:58.064Z,2.50
2022-09-17T00:49:14.468Z,2.95
2022-09-17T00:49:28.652Z,1.70
2022-09-17T00:49:39.939Z,0.98
2022-09-17T00:49:54.068Z,1.40
2022-09-17T00:50:17.247Z,1.60
2022-09-17T00:50:30.535Z,1.30
2022-09-17T00:50:42.119Z,1.90
2022-09-17T00:50:53.896Z,4.13
2022-09-17T00:51:05.884Z,4.55
2022-09-17T00:51:20.176Z,3.97
2022-09-17T00:51:37.039Z,1.65
2022-09-17T00:52:00.478Z,1.50
2022-09-17T00:52:13.570Z,5.20
2022-09-17T00:52:36.140Z,5.80
2022-09-17T00:52:51.232Z,2.08
2022-09-17T00:53:07.822Z,0.98
2022-09-17T00:53:20.744Z,4.63
2022-09-17T00:53:32.304Z,4.75
2022-09-17T00:53:43.594Z,2.03
2022-09-17T00:53:55.796Z,0.70
2022-09-17T00:54:08.839Z,1.17
2022-09-17T00:54:20.091Z,1.60
2022-09-17T00:54:32.457Z,1.38
2022-09-17T00:54:46.292Z,1.40
2022-09-17T00:55:00.262Z,1.30
2022-09-17T00:55:11.546Z,2.13
2022-09-17T00:55:24.860Z,5.32
2022-09-17T00:55:40.593Z,4.50
2022-09-17T00:56:04.704Z,0.65
2022-09-17T00:56:18.742Z,1.00
2022-09-17T00:56:32.520Z,1.45
2022-09-17T00:56:43.806Z,1.25
2022-09-17T00:56:55.589Z,1.52
2022-09-17T00:57:06.989Z,1.48
2022-09-17T00:57:18.194Z,1.30
2022-09-17T00:57:30.516Z,0.88
2022-09-17T00:57:42.044Z,1.40
2022-09-17T00:57:56.325Z,2.03
2022-09-17T00:58:09.428Z,1.95
2022-09-17T00:58:21.898Z,1.15
2022-09-17T00:58:37.838Z,1.60
2022-09-17T00:58:52.482Z,3.17
2022-09-17T00:59:03.928Z,2.63
2022-09-17T00:59:15.285Z,1.73
2022-09-17T00:59:26.707Z,0.88
2022-09-17T00:59:38.209Z,1.42
2022-09-17T00:59:49.545Z,2.35
2022-09-17T01:00:00.833Z,2.30
2022-09-17T01:00:13.271Z,1.70
2022-09-17T01:00:25.235Z,4.07
2022-09-17T01:00:36.688Z,3.90
2022-09-17T01:00:48.180Z,3.25
2022-09-17T01:00:59.576Z,1.10
2022-09-17T01:01:10.966Z,2.58
2022-09-17T01:01:22.328Z,2.13
2022-09-17T01:01:33.618Z,2.33
2022-09-17T01:01:44.920Z,1.45
2022-09-17T01:01:56.245Z,2.70
2022-09-17T01:02:09.590Z,2.33
2022-09-17T01:02:21.036Z,1.63
2022-09-17T01:02:32.317Z,0.90
2022-09-17T01:02:43.862Z,0.88
2022-09-17T01:02:55.142Z,1.23
2022-09-17T01:03:06.615Z,1.33
2022-09-17T01:03:17.918Z,1.17
2022-09-17T01:03:29.169Z,6.35
2022-09-17T01:03:40.489Z,7.63
2022-09-17T01:03:51.748Z,6.90
2022-09-17T01:04:02.996Z,1.40
2022-09-17T01:04:17.679Z,1.13
2022-09-17T01:04:28.954Z,0.63
2022-09-17T01:04:40.199Z,0.50
2022-09-17T01:04:51.465Z,0.70
2022-09-17T01:05:02.748Z,1.83
2022-09-17T01:05:14.807Z,2.15
2022-09-17T01:05:36.136Z,2.00
2022-09-17T01:05:49.867Z,3.10
2022-09-17T01:06:08.987Z,1.52
2022-09-17T01:06:49.739Z,1.85
2022-09-17T01:07:06.954Z,0.90
2022-09-17T01:07:36.631Z,0.60
2022-09-17T01:08:01.290Z,1.65
2022-09-17T01:08:31.219Z,2.60
2022-09-17T01:08:54.396Z,2.20
2022-09-17T01:09:14.453Z,1.27
2022-09-17T01:09:36.618Z,2.45
2022-09-17T01:10:13.974Z,1.67
2022-09-17T01:10:43.543Z,1.20
2022-09-17T01:11:03.837Z,0.65
2022-09-17T01:11:21.870Z,0.30
2022-09-17T01:11:36.206Z,0.80
2022-09-17T01:11:56.700Z,2.15
2022-09-17T01:12:20.126Z,1.70
2022-09-17T01:12:51.655Z,0.85
2022-09-17T01:13:17.896Z,0.77
2022-09-17T01:13:36.725Z,1.77
2022-09-17T01:13:47.937Z,1.73
2022-09-17T01:14:14.025Z,1.35
2022-09-17T01:14:44.127Z,2.15
2022-09-17T01:14:58.178Z,0.75
2022-09-17T01:15:21.604Z,0.80
2022-09-17T01:15:47.602Z,1.00
2022-09-17T01:16:03.046Z,1.85
2022-09-17T01:16:23.299Z,0.60
2022-09-17T01:16:34.633Z,0.65
2022-09-17T01:17:15.102Z,1.17
2022-09-17T01:17:30.913Z,1.25
2022-09-17T01:17:52.572Z,2.40
2022-09-17T01:18:06.592Z,1.10
2022-09-17T01:18:20.855Z,0.90
2022-09-17T01:18:50.876Z,0.50
2022-09-17T01:19:20.647Z,0.82
2022-09-17T01:19:49.943Z,0.75
2022-09-17T01:20:16.240Z,0.80
2022-09-17T01:20:30.373Z,0.82
2022-09-17T01:20:50.841Z,1.08
2022-09-17T01:21:02.114Z,1.70
2022-09-17T01:21:19.563Z,1.90
2022-09-17T01:21:33.857Z,0.73
2022-09-17T01:21:56.917Z,0.30
2022-09-17T01:22:13.269Z,0.45
2022-09-17T01:22:33.698Z,1.70
2022-09-17T01:22:58.616Z,2.05
2022-09-17T01:23:18.951Z,1.40
2022-09-17T01:23:30.143Z,0.95
2022-09-17T01:23:53.200Z,0.80
2022-09-17T01:24:07.523Z,1.10
2022-09-17T01:24:21.785Z,1.27
2022-09-17T01:24:48.412Z,0.82
2022-09-17T01:25:05.688Z,2.85
2022-09-17T01:25:21.774Z,2.78
2022-09-17T01:25:35.779Z,3.10
2022-09-17T01:26:02.259Z,1.23
2022-09-17T01:26:16.552Z,3.08
2022-09-17T01:26:43.115Z,2.70
2022-09-17T01:27:22.240Z,0.55
2022-09-17T01:27:45.639Z,0.60
2022-09-17T01:28:02.607Z,0.40
2022-09-17T01:28:19.744Z,0.52
2022-09-17T01:28:38.765Z,0.45
2022-09-17T01:29:02.237Z,3.05
2022-09-17T01:29:13.554Z,1.13
2022-09-17T01:29:44.344Z,0.45
2022-09-17T01:30:04.934Z,4.00
2022-09-17T01:30:36.426Z,0.80
2022-09-17T01:30:57.492Z,0.70
2022-09-17T01:31:15.056Z,1.20
2022-09-17T01:31:34.336Z,1.40
2022-09-17T01:31:52.541Z,0.28
2022-09-17T01:32:14.320Z,1.02
2022-09-17T01:32:25.521Z,4.40
2022-09-17T01:32:36.724Z,3.88
2022-09-17T01:33:08.229Z,2.53
2022-09-17T01:33:24.827Z,1.17
2022-09-17T01:33:39.090Z,2.22
2022-09-17T01:33:59.970Z,2.70
2022-09-17T01:34:30.595Z,0.65
2022-09-17T01:34:41.812Z,2.72
2022-09-17T01:35:10.839Z,4.43
2022-09-17T01:35:25.248Z,0.57
2022-09-17T01:35:48.702Z,0.70
2022-09-17T01:36:09.329Z,4.30
2022-09-17T01:36:29.605Z,1.90
2022-09-17T01:36:40.817Z,0.60
2022-09-17T01:36:58.436Z,1.02
2022-09-17T01:37:13.163Z,2.58
2022-09-17T01:37:31.059Z,2.78
2022-09-17T01:37:47.430Z,0.77
2022-09-17T01:38:01.430Z,1.67
2022-09-17T01:38:32.315Z,1.70
2022-09-17T01:39:03.807Z,1.40
2022-09-17T01:39:18.125Z,1.30
2022-09-17T01:39:33.387Z,1.67
2022-09-17T01:39:47.687Z,3.22
2022-09-17T01:40:07.426Z,3.00
2022-09-17T01:40:24.477Z,0.82
2022-09-17T01:40:41.789Z,0.52
2022-09-17T01:40:59.054Z,1.00
2022-09-17T01:41:14.514Z,2.13
2022-09-17T01:41:32.631Z,2.25
2022-09-17T01:41:47.857Z,2.30
2022-09-17T01:42:14.447Z,1.35
2022-09-17T01:42:29.779Z,4.05
2022-09-17T01:42:53.227Z,5.40
2022-09-17T01:43:21.870Z,1.40
2022-09-17T01:43:36.162Z,0.30
2022-09-17T01:44:16.829Z,0.30
2022-09-17T01:44:39.753Z,0.30
2022-09-17T01:44:50.956Z,1.02
2022-09-17T01:45:02.175Z,1.40
2022-09-17T01:45:19.562Z,1.23
2022-09-17T01:45:35.805Z,0.90
2022-09-17T01:45:57.070Z,0.95
2022-09-17T01:46:13.943Z,2.00
2022-09-17T01:46:33.291Z,1.20
2022-09-17T01:46:49.692Z,0.70
2022-09-17T01:47:11.734Z,0.22
2022-09-17T01:47:24.240Z,1.38
2022-09-17T01:47:42.284Z,1.50
2022-09-17T01:48:03.191Z,0.47
2022-09-17T01:48:18.419Z,1.08
2022-09-17T01:48:31.956Z,1.10
2022-09-17T01:48:45.904Z,0.77
2022-09-17T01:48:59.135Z,0.60
2022-09-17T01:49:10.618Z,0.68
2022-09-17T01:49:23.427Z,0.65
2022-09-17T01:49:36.531Z,0.93
2022-09-17T01:49:48.939Z,0.77
2022-09-17T01:50:03.517Z,0.60
2022-09-17T01:50:17.886Z,0.75
2022-09-17T01:50:36.625Z,2.03
2022-09-17T01:50:53.253Z,1.35
2022-09-17T01:51:04.525Z,0.30
2022-09-17T01:51:21.105Z,0.22
2022-09-17T01:51:36.596Z,0.38
2022-09-17T01:51:49.068Z,1.10
2022-09-17T01:52:00.883Z,1.17
2022-09-17T01:52:13.659Z,0.50
2022-09-17T01:52:25.299Z,0.85
2022-09-17T01:52:38.197Z,0.80
2022-09-17T01:52:50.701Z,0.65
2022-09-17T01:53:02.889Z,0.75
2022-09-17T01:53:16.293Z,3.40
2022-09-17T01:53:30.987Z,5.53
2022-09-17T01:53:57.673Z,3.55
2022-09-17T01:54:17.767Z,0.95
2022-09-17T01:54:31.843Z,1.90
2022-09-17T01:54:45.317Z,1.95
2022-09-17T01:54:58.309Z,0.55
2022-09-17T01:55:11.140Z,2.25
2022-09-17T01:55:24.461Z,2.50
2022-09-17T01:55:37.187Z,0.98
2022-09-17T01:55:49.662Z,0.68
2022-09-17T01:56:02.362Z,0.73
2022-09-17T01:56:15.681Z,1.13
2022-09-17T01:56:29.974Z,1.40
2022-09-17T01:57:04.216Z,0.93
2022-09-17T01:57:24.222Z,0.70
2022-09-17T01:57:53.626Z,1.10
2022-09-17T01:58:11.272Z,0.50
2022-09-17T01:58:26.467Z,0.70
2022-09-17T01:58:42.114Z,0.68
2022-09-17T01:59:04.642Z,0.55
2022-09-17T01:59:18.572Z,0.50
2022-09-17T01:59:38.634Z,0.47
2022-09-17T01:59:56.932Z,0.47
2022-09-17T02:00:09.183Z,0.60
2022-09-17T02:00:20.824Z,0.77
2022-09-17T02:00:32.107Z,2.22
2022-09-17T02:00:47.181Z,2.70
2022-09-17T02:01:01.335Z,1.10
2022-09-17T02:01:14.408Z,0.60
2022-09-17T02:01:26.863Z,0.70
2022-09-17T02:01:39.212Z,1.60
2022-09-17T02:01:53.577Z,2.40
2022-09-17T02:02:10.875Z,1.80
2022-09-17T02:02:38.288Z,3.25
2022-09-17T02:03:02.002Z,0.98
2022-09-17T02:03:33.465Z,1.20
2022-09-17T02:03:48.471Z,0.60
2022-09-17T02:04:02.976Z,0.75
2022-09-17T02:04:23.406Z,0.70
2022-09-17T02:04:40.790Z,2.10
2022-09-17T02:05:00.089Z,1.67
2022-09-17T02:05:13.971Z,1.30
2022-09-17T02:05:34.253Z,1.20
2022-09-17T02:05:49.561Z,1.38
2022-09-17T02:06:04.170Z,2.58
2022-09-17T02:06:22.610Z,1.85
2022-09-17T02:06:37.420Z,1.70
2022-09-17T02:06:53.156Z,2.00
2022-09-17T02:07:08.627Z,1.20
2022-09-17T02:07:20.607Z,0.30
2022-09-17T02:07:32.710Z,1.10
2022-09-17T02:07:52.705Z,1.50
2022-09-17T02:08:06.271Z,0.77
2022-09-17T02:08:21.911Z,0.90
2022-09-17T02:08:53.285Z,0.60
2022-09-17T02:09:24.819Z,0.40
2022-09-17T02:09:42.336Z,0.30
2022-09-17T02:09:56.970Z,1.33
2022-09-17T02:10:10.876Z,1.05
2022-09-17T02:10:24.344Z,1.80
2022-09-17T02:10:42.413Z,2.00
2022-09-17T02:11:00.173Z,1.20
2022-09-17T02:11:13.573Z,0.55
2022-09-17T02:11:24.980Z,0.80
2022-09-17T02:11:37.215Z,0.80
2022-09-17T02:11:51.548Z,0.73
2022-09-17T02:12:06.333Z,0.75
2022-09-17T02:12:20.827Z,0.40
2022-09-17T02:12:35.827Z,0.32
2022-09-17T02:12:51.144Z,1.10
2022-09-17T02:13:08.091Z,1.30
2022-09-17T02:13:22.221Z,0.45
2022-09-17T02:13:38.892Z,0.30
2022-09-17T02:13:54.179Z,1.60
2022-09-17T02:14:13.234Z,2.58
2022-09-17T02:14:27.397Z,1.77
2022-09-17T02:14:41.386Z,0.57
2022-09-17T02:14:54.444Z,0.30
2022-09-17T02:15:09.228Z,0.32
2022-09-17T02:15:22.047Z,0.90
2022-09-17T02:15:35.805Z,1.15
2022-09-17T02:15:50.862Z,0.60
2022-09-17T02:16:10.898Z,0.32
2022-09-17T02:16:30.301Z,0.40
2022-09-17T02:16:45.681Z,0.28
2022-09-17T02:17:00.865Z,0.60
2022-09-17T02:17:15.980Z,0.65
2022-09-17T02:17:29.910Z,0.82
2022-09-17T02:18:02.966Z,0.95
2022-09-17T02:18:23.199Z,0.20
2022-09-17T02:18:37.407Z,0.45
2022-09-17T02:19:06.851Z,0.40
2022-09-17T02:19:20.704Z,1.10
2022-09-17T02:19:34.085Z,1.00
2022-09-17T02:19:45.340Z,0.88
2022-09-17T02:19:56.585Z,0.85
2022-09-17T02:20:08.548Z,2.20
2022-09-17T02:20:24.578Z,1.70
2022-09-17T02:20:40.966Z,0.47
2022-09-17T02:21:04.921Z,0.80
2022-09-17T02:21:21.445Z,0.20
2022-09-17T02:21:32.682Z,0.28
2022-09-17T02:21:46.847Z,0.68
2022-09-17T02:22:01.121Z,0.68
2022-09-17T02:22:24.071Z,0.98
2022-09-17T02:22:41.354Z,0.82
2022-09-17T02:22:55.145Z,0.50
2022-09-17T02:23:12.086Z,0.77
2022-09-17T02:23:27.629Z,0.60
2022-09-17T02:23:42.652Z,0.38
2022-09-17T02:23:56.627Z,0.63
2022-09-17T02:24:14.001Z,0.75
2022-09-17T02:24:26.228Z,1.15
2022-09-17T02:24:52.789Z,1.10
2022-09-17T02:25:22.805Z,0.20
2022-09-17T02:25:38.232Z,0.60
2022-09-17T02:26:07.216Z,1.63
2022-09-17T02:26:20.224Z,0.82
2022-09-17T02:26:32.265Z,0.65
2022-09-17T02:26:46.213Z,0.50
2022-09-17T02:27:06.330Z,0.40
2022-09-17T02:27:17.498Z,0.63
2022-09-17T02:27:37.735Z,0.70
2022-09-17T02:28:02.975Z,0.80
2022-09-17T02:28:22.553Z,0.75
2022-09-17T02:28:47.148Z,0.57
2022-09-17T02:29:00.249Z,2.80
2022-09-17T02:29:19.659Z,3.40
2022-09-17T02:29:42.136Z,0.80
2022-09-17T02:29:53.643Z,0.30
2022-09-17T02:30:05.739Z,0.77
2022-09-17T02:30:17.103Z,1.58
2022-09-17T02:30:28.381Z,1.63
2022-09-17T02:30:39.678Z,2.95
2022-09-17T02:30:51.128Z,2.30
2022-09-17T02:31:02.506Z,1.33
2022-09-17T02:31:14.362Z,0.98
2022-09-17T02:31:25.753Z,1.00
2022-09-17T02:31:37.091Z,0.95
2022-09-17T02:31:48.346Z,0.75
2022-09-17T02:31:59.680Z,0.40
2022-09-17T02:32:11.771Z,0.35
2022-09-17T02:32:23.027Z,1.00
2022-09-17T02:32:34.361Z,0.90
2022-09-17T02:32:45.656Z,0.73
2022-09-17T02:32:56.918Z,0.35
2022-09-17T02:33:10.719Z,0.22
2022-09-17T02:33:22.280Z,0.30
2022-09-17T02:33:35.180Z,0.25
2022-09-17T02:33:51.691Z,0.40
2022-09-17T02:34:03.986Z,1.55
2022-09-17T02:34:15.435Z,1.55
2022-09-17T02:34:28.021Z,0.70
2022-09-17T02:34:39.423Z,0.25
2022-09-17T02:34:50.846Z,0.40
2022-09-17T02:35:02.097Z,0.30
2022-09-17T02:35:14.236Z,0.25
2022-09-17T02:35:25.539Z,0.20
2022-09-17T02:35:36.846Z,0.20
2022-09-17T02:35:48.098Z,0.88
2022-09-17T02:35:59.441Z,1.02
2022-09-17T02:36:10.798Z,0.90
2022-09-17T02:36:22.541Z,0.93
2022-09-17T02:36:34.198Z,0.80
2022-09-17T02:36:45.495Z,0.60
2022-09-17T02:36:57.310Z,0.52
2022-09-17T02:37:08.792Z,0.73
2022-09-17T02:37:20.050Z,0.70
2022-09-17T02:37:31.332Z,0.40
2022-09-17T02:37:43.481Z,0.50
2022-09-17T02:37:54.765Z,0.45
2022-09-17T02:38:06.046Z,0.45
2022-09-17T02:38:35.524Z,0.30
2022-09-17T02:38:46.822Z,1.90
2022-09-17T02:38:59.418Z,0.20
2022-09-17T02:39:10.687Z,0.25
2022-09-17T02:39:22.238Z,0.90
2022-09-17T02:39:33.571Z,1.00
2022-09-17T02:39:44.803Z,1.10
2022-09-17T02:39:56.196Z,0.60
2022-09-17T02:40:08.036Z,0.45
2022-09-17T02:40:21.260Z,0.35
2022-09-17T02:40:36.971Z,0.30
2022-09-17T02:40:50.800Z,0.50
2022-09-17T02:41:19.901Z,0.90
2022-09-17T02:41:46.196Z,1.10
2022-09-17T02:42:00.540Z,0.70
2022-09-17T02:42:24.066Z,0.57
2022-09-17T02:42:54.064Z,0.32
2022-09-17T02:43:12.054Z,0.77
2022-09-17T02:43:38.194Z,1.67
2022-09-17T02:43:52.366Z,0.85
2022-09-17T02:44:03.703Z,1.00
2022-09-17T02:44:23.844Z,1.35
2022-09-17T02:44:35.044Z,0.45
2022-09-17T02:44:46.283Z,0.40
2022-09-17T02:45:02.202Z,0.40
2022-09-17T02:45:19.612Z,0.60
2022-09-17T02:45:43.915Z,0.43
2022-09-17T02:46:07.504Z,0.70
2022-09-17T02:46:21.574Z,0.70
2022-09-17T02:46:44.850Z,0.47
2022-09-17T02:47:14.975Z,0.40
2022-09-17T02:47:35.184Z,1.73
2022-09-17T02:47:49.501Z,0.80
2022-09-17T02:48:15.997Z,0.32
2022-09-17T02:48:27.222Z,0.30
2022-09-17T02:48:50.849Z,0.40
2022-09-17T02:49:20.672Z,0.40
2022-09-17T02:49:52.125Z,1.27
2022-09-17T02:50:15.637Z,0.20
2022-09-17T02:50:33.530Z,0.45
2022-09-17T02:51:05.692Z,0.40
2022-09-17T02:51:16.955Z,0.40
2022-09-17T02:51:28.214Z,0.30
2022-09-17T02:51:39.461Z,0.85
2022-09-17T02:51:59.474Z,0.70
2022-09-17T02:52:16.752Z,0.40
2022-09-17T02:52:36.193Z,0.30
2022-09-17T02:52:54.698Z,0.20
2022-09-17T02:53:11.822Z,0.40
2022-09-17T02:53:41.904Z,0.22
2022-09-17T02:54:05.249Z,0.22
2022-09-17T02:54:28.261Z,0.40
2022-09-17T02:54:42.526Z,0.90
2022-09-17T02:54:56.770Z,0.60
2022-09-17T02:55:13.866Z,0.60
2022-09-17T02:55:34.071Z,1.70
2022-09-17T02:56:01.593Z,1.25
2022-09-17T02:56:26.084Z,0.75
2022-09-17T02:56:45.802Z,0.30
2022-09-17T02:57:17.276Z,0.20
2022-09-17T02:57:52.189Z,0.60
2022-09-17T02:58:03.440Z,0.57
2022-09-17T02:58:14.700Z,1.00
2022-09-17T02:58:28.151Z,0.88
2022-09-17T02:58:42.417Z,0.75
2022-09-17T02:58:59.991Z,0.90
2022-09-17T02:59:30.128Z,1.60
2022-09-17T02:59:51.845Z,0.47
2022-09-17T03:00:07.362Z,0.63
2022-09-17T03:00:20.065Z,1.40
2022-09-17T03:00:31.347Z,1.23
2022-09-17T03:00:43.210Z,0.20
2022-09-17T03:00:57.647Z,0.57
2022-09-17T03:01:12.499Z,1.00
2022-09-17T03:01:29.510Z,0.60
2022-09-17T03:01:53.071Z,0.20
2022-09-17T03:02:12.233Z,1.00
2022-09-17T03:02:28.891Z,0.30
2022-09-17T03:02:42.599Z,0.20
2022-09-17T03:02:56.881Z,0.17
2022-09-17T03:03:09.694Z,0.20
2022-09-17T03:03:40.868Z,0.20
2022-09-17T03:03:54.392Z,2.75
2022-09-17T03:04:08.254Z,0.20
2022-09-17T03:04:20.974Z,0.20
2022-09-17T03:04:32.877Z,0.20
2022-09-17T03:04:44.818Z,0.10
2022-09-17T03:04:56.472Z,0.10
2022-09-17T03:05:08.092Z,0.17
2022-09-17T03:05:21.117Z,0.20
2022-09-17T03:05:32.529Z,2.00
2022-09-17T03:05:44.417Z,1.98
2022-09-17T03:05:55.892Z,0.38
2022-09-17T03:06:07.233Z,0.50
2022-09-17T03:06:18.690Z,0.50
2022-09-17T03:06:29.972Z,0.30
2022-09-17T03:06:42.489Z,0.30
2022-09-17T03:06:53.922Z,2.30
2022-09-17T03:07:09.438Z,2.33
2022-09-17T03:07:22.322Z,0.50
2022-09-17T03:07:33.873Z,0.55
2022-09-17T03:07:45.127Z,1.70
2022-09-17T03:07:57.069Z,1.63
2022-09-17T03:08:09.384Z,1.50
2022-09-17T03:08:27.374Z,0.75
2022-09-17T03:08:41.859Z,0.40
2022-09-17T03:08:53.155Z,0.20
2022-09-17T03:09:04.565Z,0.30
2022-09-17T03:09:15.835Z,0.32
2022-09-17T03:09:27.062Z,0.28
2022-09-17T03:09:38.679Z,0.20
2022-09-17T03:09:49.995Z,0.10
2022-09-17T03:10:01.278Z,0.22
2022-09-17T03:10:12.638Z,0.90
2022-09-17T03:10:23.881Z,1.20
2022-09-17T03:10:35.148Z,0.63
2022-09-17T03:10:46.582Z,0.80
2022-09-17T03:10:57.824Z,1.10
2022-09-17T03:11:10.364Z,1.10
2022-09-17T03:11:21.634Z,1.00
2022-09-17T03:11:32.845Z,0.45
2022-09-17T03:11:44.143Z,0.38
2022-09-17T03:11:55.396Z,0.50
2022-09-17T03:12:06.788Z,0.60
2022-09-17T03:12:18.075Z,0.85
2022-09-17T03:12:29.357Z,0.60
2022-09-17T03:12:40.627Z,0.73
2022-09-17T03:12:53.590Z,0.43
2022-09-17T03:13:04.844Z,0.30
2022-09-17T03:13:16.099Z,0.22
2022-09-17T03:13:27.315Z,0.32
2022-09-17T03:13:38.586Z,0.60
2022-09-17T03:13:49.882Z,0.40
2022-09-17T03:14:01.145Z,0.35
2022-09-17T03:14:12.387Z,0.15
2022-09-17T03:14:23.645Z,0.40
2022-09-17T03:14:34.862Z,0.40
2022-09-17T03:14:46.057Z,0.28
2022-09-17T03:14:57.311Z,0.20
2022-09-17T03:15:09.097Z,0.90
2022-09-17T03:15:20.371Z,0.80
2022-09-17T03:15:31.674Z,1.73
2022-09-17T03:15:42.979Z,1.20
2022-09-17T03:15:54.344Z,1.30
2022-09-17T03:16:06.404Z,0.50
2022-09-17T03:16:17.817Z,0.20
2022-09-17T03:16:29.197Z,0.60
2022-09-17T03:16:40.552Z,0.60
2022-09-17T03:16:51.786Z,0.60
2022-09-17T03:17:03.167Z,0.20
2022-09-17T03:17:14.403Z,0.10
2022-09-17T03:17:25.596Z,0.75
2022-09-17T03:17:36.880Z,0.90
2022-09-17T03:17:51.295Z,1.40
2022-09-17T03:18:04.450Z,1.05
2022-09-17T03:18:15.737Z,0.63
2022-09-17T03:18:26.959Z,0.57
2022-09-17T03:18:38.226Z,0.35
2022-09-17T03:18:49.508Z,0.22
2022-09-17T03:19:00.786Z,0.20